sensor_id;sensor_type;location;lat;lon;timestamp;P1;P2;P0
49528;PMS5003;35423;37.320;-121.762;2022-09-03T00:00:39;16;16;
49528;PMS5003;35423;37.320;-121.762;2022-09-03T00:03:09;25;25;
49528;PMS5003;35423;37.320;-121.762;2022-09-03T00:05:36;18;18;
49528;PMS5003;35423;37.320;-121.762;2022-09-03T00:07:59;22;22;
49528;PMS5003;35423;37.320;-121.762;2022-09-03T00:10:27;30;30;
49528;PMS5003;35423;37.320;-121.762;2022-09-03T00:12:53;27;27;
49528;PMS5003;35423;37.320;-121.762;2022-09-03T00:15:18;25;25;
49528;PMS5003;35423;37.320;-121.762;2022-09-03T00:17:44;17;17;
49528;PMS5003;35423;37.320;-121.762;2022-09-03T00:20:11;21;21;
49528;PMS5003;35423;37.320;-121.762;2022-09-03T00:22:38;19;19;
49528;PMS5003;35423;37.320;-121.762;2022-09-03T00:25:02;19;19;
49528;PMS5003;35423;37.320;-121.762;2022-09-03T00:27:27;27;27;
49528;PMS5003;35423;37.320;-121.762;2022-09-03T00:29:56;26;19;
49528;PMS5003;35423;37.320;-121.762;2022-09-03T00:32:23;21;21;
49528;PMS5003;35423;37.320;-121.762;2022-09-03T00:34:49;38;30;
49528;PMS5003;35423;37.320;-121.762;2022-09-03T00:37:15;25;25;
49528;PMS5003;35423;37.320;-121.762;2022-09-03T00:39:41;18;18;
49528;PMS5003;35423;37.320;-121.762;2022-09-03T00:42:11;23;23;
49528;PMS5003;35423;37.320;-121.762;2022-09-03T00:44:36;29;29;
49528;PMS5003;35423;37.320;-121.762;2022-09-03T00:46:59;27;27;
49528;PMS5003;35423;37.320;-121.762;2022-09-03T00:49:26;18;18;
49528;PMS5003;35423;37.320;-121.762;2022-09-03T00:51:50;20;20;
49528;PMS5003;35423;37.320;-121.762;2022-09-03T00:54:16;19;19;
49528;PMS5003;35423;37.320;-121.762;2022-09-03T00:56:42;18;18;
49528;PMS5003;35423;37.320;-121.762;2022-09-03T00:59:11;42;19;
49528;PMS5003;35423;37.320;-121.762;2022-09-03T01:01:38;18;18;
49528;PMS5003;35423;37.320;-121.762;2022-09-03T01:04:07;25;25;
49528;PMS5003;35423;37.320;-121.762;2022-09-03T01:06:37;31;31;
49528;PMS5003;35423;37.320;-121.762;2022-09-03T01:09:05;30;30;
49528;PMS5003;35423;37.320;-121.762;2022-09-03T01:11:32;28;28;
49528;PMS5003;35423;37.320;-121.762;2022-09-03T01:13:56;25;25;
49528;PMS5003;35423;37.320;-121.762;2022-09-03T01:16:25;16;16;
49528;PMS5003;35423;37.320;-121.762;2022-09-03T01:18:50;17;17;
49528;PMS5003;35423;37.320;-121.762;2022-09-03T01:21:23;28;24;
49528;PMS5003;35423;37.320;-121.762;2022-09-03T01:26:13;36;34;
49528;PMS5003;35423;37.320;-121.762;2022-09-03T01:28:39;27;27;
49528;PMS5003;35423;37.320;-121.762;2022-09-03T01:31:01;35;24;
49528;PMS5003;35423;37.320;-121.762;2022-09-03T01:33:26;28;27;
49528;PMS5003;35423;37.320;-121.762;2022-09-03T01:35:51;25;25;
49528;PMS5003;35423;37.320;-121.762;2022-09-03T01:38:19;36;36;
49528;PMS5003;35423;37.320;-121.762;2022-09-03T01:40:46;38;38;
49528;PMS5003;35423;37.320;-121.762;2022-09-03T01:43:16;29;29;
49528;PMS5003;35423;37.320;-121.762;2022-09-03T01:45:43;27;27;
49528;PMS5003;35423;37.320;-121.762;2022-09-03T01:48:10;18;18;
49528;PMS5003;35423;37.320;-121.762;2022-09-03T01:50:47;31;31;
49528;PMS5003;35423;37.320;-121.762;2022-09-03T01:53:09;18;18;
49528;PMS5003;35423;37.320;-121.762;2022-09-03T01:55:42;13;13;
49528;PMS5003;35423;37.320;-121.762;2022-09-03T01:58:05;28;28;
49528;PMS5003;35423;37.320;-121.762;2022-09-03T02:00:30;25;25;
49528;PMS5003;35423;37.320;-121.762;2022-09-03T02:02:55;30;30;
49528;PMS5003;35423;37.320;-121.762;2022-09-03T02:05:26;19;19;
49528;PMS5003;35423;37.320;-121.762;2022-09-03T02:07:47;25;25;
49528;PMS5003;35423;37.320;-121.762;2022-09-03T02:10:13;25;25;
49528;PMS5003;35423;37.320;-121.762;2022-09-03T02:12:37;21;21;
49528;PMS5003;35423;37.320;-121.762;2022-09-03T02:15:04;32;32;
49528;PMS5003;35423;37.320;-121.762;2022-09-03T02:17:29;33;33;
49528;PMS5003;35423;37.320;-121.762;2022-09-03T02:19:55;25;25;
49528;PMS5003;35423;37.320;-121.762;2022-09-03T02:22:22;32;32;
49528;PMS5003;35423;37.320;-121.762;2022-09-03T02:24:49;24;24;
49528;PMS5003;35423;37.320;-121.762;2022-09-03T02:27:15;28;28;
49528;PMS5003;35423;37.320;-121.762;2022-09-03T02:29:43;29;14;
49528;PMS5003;35423;37.320;-121.762;2022-09-03T02:32:10;21;21;
49528;PMS5003;35423;37.320;-121.762;2022-09-03T02:34:37;39;28;
49528;PMS5003;35423;37.320;-121.762;2022-09-03T02:37:11;22;22;
49528;PMS5003;35423;37.320;-121.762;2022-09-03T02:39:46;23;23;
49528;PMS5003;35423;37.320;-121.762;2022-09-03T02:42:14;30;30;
49528;PMS5003;35423;37.320;-121.762;2022-09-03T02:44:40;34;34;
49528;PMS5003;35423;37.320;-121.762;2022-09-03T02:47:07;30;19;
49528;PMS5003;35423;37.320;-121.762;2022-09-03T02:49:33;30;30;
49528;PMS5003;35423;37.320;-121.762;2022-09-03T02:52:01;24;24;
49528;PMS5003;35423;37.320;-121.762;2022-09-03T02:54:28;28;28;
49528;PMS5003;35423;37.320;-121.762;2022-09-03T02:56:56;21;21;
49528;PMS5003;35423;37.320;-121.762;2022-09-03T02:59:21;25;25;
49528;PMS5003;35423;37.320;-121.762;2022-09-03T03:01:48;30;30;
49528;PMS5003;35423;37.320;-121.762;2022-09-03T03:04:15;35;35;
49528;PMS5003;35423;37.320;-121.762;2022-09-03T03:06:40;26;21;
49528;PMS5003;35423;37.320;-121.762;2022-09-03T03:09:07;25;25;
49528;PMS5003;35423;37.320;-121.762;2022-09-03T03:11:33;27;27;
49528;PMS5003;35423;37.320;-121.762;2022-09-03T03:14:00;25;25;
49528;PMS5003;35423;37.320;-121.762;2022-09-03T03:16:25;25;25;
49528;PMS5003;35423;37.320;-121.762;2022-09-03T03:18:51;33;28;
49528;PMS5003;35423;37.320;-121.762;2022-09-03T03:21:17;38;33;
49528;PMS5003;35423;37.320;-121.762;2022-09-03T03:23:44;30;30;
49528;PMS5003;35423;37.320;-121.762;2022-09-03T03:26:14;40;40;
49528;PMS5003;35423;37.320;-121.762;2022-09-03T03:28:39;52;52;
49528;PMS5003;35423;37.320;-121.762;2022-09-03T03:31:08;29;29;
49528;PMS5003;35423;37.320;-121.762;2022-09-03T03:33:36;45;37;
49528;PMS5003;35423;37.320;-121.762;2022-09-03T03:36:03;29;29;
49528;PMS5003;35423;37.320;-121.762;2022-09-03T03:38:26;27;27;
49528;PMS5003;35423;37.320;-121.762;2022-09-03T03:40:55;32;32;
49528;PMS5003;35423;37.320;-121.762;2022-09-03T03:43:22;29;29;
49528;PMS5003;35423;37.320;-121.762;2022-09-03T03:48:14;37;37;
49528;PMS5003;35423;37.320;-121.762;2022-09-03T03:50:40;32;32;
49528;PMS5003;35423;37.320;-121.762;2022-09-03T03:53:06;30;30;
49528;PMS5003;35423;37.320;-121.762;2022-09-03T03:55:32;34;30;
49528;PMS5003;35423;37.320;-121.762;2022-09-03T03:57:58;42;26;
49528;PMS5003;35423;37.320;-121.762;2022-09-03T04:00:25;31;31;
49528;PMS5003;35423;37.320;-121.762;2022-09-03T04:02:51;43;43;
49528;PMS5003;35423;37.320;-121.762;2022-09-03T04:05:19;17;17;
49528;PMS5003;35423;37.320;-121.762;2022-09-03T04:07:47;35;35;
49528;PMS5003;35423;37.320;-121.762;2022-09-03T04:10:13;30;30;
49528;PMS5003;35423;37.320;-121.762;2022-09-03T04:12:39;41;41;
49528;PMS5003;35423;37.320;-121.762;2022-09-03T04:15:09;40;40;
49528;PMS5003;35423;37.320;-121.762;2022-09-03T04:17:35;39;39;
49528;PMS5003;35423;37.320;-121.762;2022-09-03T04:20:01;48;37;
49528;PMS5003;35423;37.320;-121.762;2022-09-03T04:22:27;40;40;
49528;PMS5003;35423;37.320;-121.762;2022-09-03T04:24:54;38;38;
49528;PMS5003;35423;37.320;-121.762;2022-09-03T04:27:21;45;33;
49528;PMS5003;35423;37.320;-121.762;2022-09-03T04:29:50;20;20;
49528;PMS5003;35423;37.320;-121.762;2022-09-03T04:32:15;39;39;
49528;PMS5003;35423;37.320;-121.762;2022-09-03T04:34:43;51;45;
49528;PMS5003;35423;37.320;-121.762;2022-09-03T04:37:10;52;50;
49528;PMS5003;35423;37.320;-121.762;2022-09-03T04:39:37;44;44;
49528;PMS5003;35423;37.320;-121.762;2022-09-03T04:42:04;66;44;
49528;PMS5003;35423;37.320;-121.762;2022-09-03T04:44:39;38;34;
49528;PMS5003;35423;37.320;-121.762;2022-09-03T04:47:05;34;34;
49528;PMS5003;35423;37.320;-121.762;2022-09-03T04:49:31;46;44;
49528;PMS5003;35423;37.320;-121.762;2022-09-03T04:51:56;41;41;
49528;PMS5003;35423;37.320;-121.762;2022-09-03T04:54:23;26;26;
49528;PMS5003;35423;37.320;-121.762;2022-09-03T04:56:49;46;43;
49528;PMS5003;35423;37.320;-121.762;2022-09-03T04:59:14;34;34;
49528;PMS5003;35423;37.320;-121.762;2022-09-03T05:01:41;48;41;
49528;PMS5003;35423;37.320;-121.762;2022-09-03T05:04:10;56;45;
49528;PMS5003;35423;37.320;-121.762;2022-09-03T05:06:36;42;42;
49528;PMS5003;35423;37.320;-121.762;2022-09-03T05:09:04;24;24;
49528;PMS5003;35423;37.320;-121.762;2022-09-03T05:11:38;37;37;
49528;PMS5003;35423;37.320;-121.762;2022-09-03T05:14:04;39;39;
49528;PMS5003;35423;37.320;-121.762;2022-09-03T05:16:34;36;36;
49528;PMS5003;35423;37.320;-121.762;2022-09-03T05:18:59;39;39;
49528;PMS5003;35423;37.320;-121.762;2022-09-03T05:21:26;34;34;
49528;PMS5003;35423;37.320;-121.762;2022-09-03T05:23:51;28;28;
49528;PMS5003;35423;37.320;-121.762;2022-09-03T05:26:19;26;26;
49528;PMS5003;35423;37.320;-121.762;2022-09-03T05:28:44;24;24;
49528;PMS5003;35423;37.320;-121.762;2022-09-03T05:31:12;40;40;
49528;PMS5003;35423;37.320;-121.762;2022-09-03T05:33:37;22;22;
49528;PMS5003;35423;37.320;-121.762;2022-09-03T05:36:06;36;36;
49528;PMS5003;35423;37.320;-121.762;2022-09-03T05:38:30;42;31;
49528;PMS5003;35423;37.320;-121.762;2022-09-03T05:40:57;35;35;
49528;PMS5003;35423;37.320;-121.762;2022-09-03T05:43:20;17;17;
49528;PMS5003;35423;37.320;-121.762;2022-09-03T05:45:48;15;15;
49528;PMS5003;35423;37.320;-121.762;2022-09-03T05:48:13;23;23;
49528;PMS5003;35423;37.320;-121.762;2022-09-03T05:50:39;24;24;
49528;PMS5003;35423;37.320;-121.762;2022-09-03T05:53:07;25;25;
49528;PMS5003;35423;37.320;-121.762;2022-09-03T05:55:33;28;28;
49528;PMS5003;35423;37.320;-121.762;2022-09-03T05:57:59;26;26;
49528;PMS5003;35423;37.320;-121.762;2022-09-03T06:00:26;25;25;
49528;PMS5003;35423;37.320;-121.762;2022-09-03T06:02:52;13;13;
49528;PMS5003;35423;37.320;-121.762;2022-09-03T06:05:18;29;22;
49528;PMS5003;35423;37.320;-121.762;2022-09-03T06:07:43;24;24;
49528;PMS5003;35423;37.320;-121.762;2022-09-03T06:10:09;17;17;
49528;PMS5003;35423;37.320;-121.762;2022-09-03T06:12:35;28;26;
49528;PMS5003;35423;37.320;-121.762;2022-09-03T06:15:03;23;23;
49528;PMS5003;35423;37.320;-121.762;2022-09-03T06:17:33;23;23;
49528;PMS5003;35423;37.320;-121.762;2022-09-03T06:19:58;38;32;
49528;PMS5003;35423;37.320;-121.762;2022-09-03T06:22:24;33;22;
49528;PMS5003;35423;37.320;-121.762;2022-09-03T06:24:51;37;37;
49528;PMS5003;35423;37.320;-121.762;2022-09-03T06:27:16;32;32;
49528;PMS5003;35423;37.320;-121.762;2022-09-03T06:29:44;23;23;
49528;PMS5003;35423;37.320;-121.762;2022-09-03T06:32:10;36;25;
49528;PMS5003;35423;37.320;-121.762;2022-09-03T06:34:35;25;25;
49528;PMS5003;35423;37.320;-121.762;2022-09-03T06:37:00;28;28;
49528;PMS5003;35423;37.320;-121.762;2022-09-03T06:39:28;14;14;
49528;PMS5003;35423;37.320;-121.762;2022-09-03T06:41:58;19;19;
49528;PMS5003;35423;37.320;-121.762;2022-09-03T06:44:24;26;26;
49528;PMS5003;35423;37.320;-121.762;2022-09-03T06:46:51;21;21;
49528;PMS5003;35423;37.320;-121.762;2022-09-03T06:49:16;22;22;
49528;PMS5003;35423;37.320;-121.762;2022-09-03T06:51:42;24;24;
49528;PMS5003;35423;37.320;-121.762;2022-09-03T06:54:10;20;20;
49528;PMS5003;35423;37.320;-121.762;2022-09-03T06:56:36;26;23;
49528;PMS5003;35423;37.320;-121.762;2022-09-03T06:59:03;21;21;
49528;PMS5003;35423;37.320;-121.762;2022-09-03T07:01:32;15;15;
49528;PMS5003;35423;37.320;-121.762;2022-09-03T07:03:58;29;27;
49528;PMS5003;35423;37.320;-121.762;2022-09-03T07:06:24;28;28;
49528;PMS5003;35423;37.320;-121.762;2022-09-03T07:08:50;33;21;
49528;PMS5003;35423;37.320;-121.762;2022-09-03T07:11:18;36;36;
49528;PMS5003;35423;37.320;-121.762;2022-09-03T07:13:44;23;23;
49528;PMS5003;35423;37.320;-121.762;2022-09-03T07:16:12;18;18;
49528;PMS5003;35423;37.320;-121.762;2022-09-03T07:18:37;31;27;
49528;PMS5003;35423;37.320;-121.762;2022-09-03T07:21:04;31;31;
49528;PMS5003;35423;37.320;-121.762;2022-09-03T07:23:35;23;23;
49528;PMS5003;35423;37.320;-121.762;2022-09-03T07:26:01;29;28;
49528;PMS5003;35423;37.320;-121.762;2022-09-03T07:28:33;22;22;
49528;PMS5003;35423;37.320;-121.762;2022-09-03T07:31:00;20;20;
49528;PMS5003;35423;37.320;-121.762;2022-09-03T07:33:25;29;29;
49528;PMS5003;35423;37.320;-121.762;2022-09-03T07:35:52;25;25;
49528;PMS5003;35423;37.320;-121.762;2022-09-03T07:38:17;29;27;
49528;PMS5003;35423;37.320;-121.762;2022-09-03T07:40:45;18;18;
49528;PMS5003;35423;37.320;-121.762;2022-09-03T07:43:12;31;31;
49528;PMS5003;35423;37.320;-121.762;2022-09-03T07:45:37;35;26;
49528;PMS5003;35423;37.320;-121.762;2022-09-03T07:48:03;35;33;
49528;PMS5003;35423;37.320;-121.762;2022-09-03T07:50:29;16;16;
49528;PMS5003;35423;37.320;-121.762;2022-09-03T07:52:57;23;23;
49528;PMS5003;35423;37.320;-121.762;2022-09-03T07:55:25;36;24;
49528;PMS5003;35423;37.320;-121.762;2022-09-03T07:57:54;36;31;
49528;PMS5003;35423;37.320;-121.762;2022-09-03T08:00:17;24;24;
49528;PMS5003;35423;37.320;-121.762;2022-09-03T08:02:43;31;31;
49528;PMS5003;35423;37.320;-121.762;2022-09-03T08:05:10;23;23;
49528;PMS5003;35423;37.320;-121.762;2022-09-03T08:07:38;37;25;
49528;PMS5003;35423;37.320;-121.762;2022-09-03T08:10:04;26;24;
49528;PMS5003;35423;37.320;-121.762;2022-09-03T08:12:30;33;33;
49528;PMS5003;35423;37.320;-121.762;2022-09-03T08:14:57;27;27;
49528;PMS5003;35423;37.320;-121.762;2022-09-03T08:17:24;32;21;
49528;PMS5003;35423;37.320;-121.762;2022-09-03T08:19:51;37;37;
49528;PMS5003;35423;37.320;-121.762;2022-09-03T08:22:17;27;26;
49528;PMS5003;35423;37.320;-121.762;2022-09-03T08:24:43;28;24;
49528;PMS5003;35423;37.320;-121.762;2022-09-03T08:27:11;21;21;
49528;PMS5003;35423;37.320;-121.762;2022-09-03T08:29:40;19;19;
49528;PMS5003;35423;37.320;-121.762;2022-09-03T08:32:08;14;14;
49528;PMS5003;35423;37.320;-121.762;2022-09-03T08:34:34;43;31;
49528;PMS5003;35423;37.320;-121.762;2022-09-03T08:37:00;30;30;
49528;PMS5003;35423;37.320;-121.762;2022-09-03T08:39:27;8;8;
49528;PMS5003;35423;37.320;-121.762;2022-09-03T08:42:00;17;17;
49528;PMS5003;35423;37.320;-121.762;2022-09-03T08:44:21;30;23;
49528;PMS5003;35423;37.320;-121.762;2022-09-03T08:46:47;16;16;
49528;PMS5003;35423;37.320;-121.762;2022-09-03T08:49:19;28;16;
49528;PMS5003;35423;37.320;-121.762;2022-09-03T08:51:45;20;20;
49528;PMS5003;35423;37.320;-121.762;2022-09-03T08:54:12;27;16;
49528;PMS5003;35423;37.320;-121.762;2022-09-03T08:56:38;25;25;
49528;PMS5003;35423;37.320;-121.762;2022-09-03T08:59:03;22;22;
49528;PMS5003;35423;37.320;-121.762;2022-09-03T09:01:33;27;25;
49528;PMS5003;35423;37.320;-121.762;2022-09-03T09:03:56;18;18;
49528;PMS5003;35423;37.320;-121.762;2022-09-03T09:06:22;40;29;
49528;PMS5003;35423;37.320;-121.762;2022-09-03T09:08:52;39;26;
49528;PMS5003;35423;37.320;-121.762;2022-09-03T09:11:16;14;14;
49528;PMS5003;35423;37.320;-121.762;2022-09-03T09:13:40;30;30;
49528;PMS5003;35423;37.320;-121.762;2022-09-03T09:16:06;20;20;
49528;PMS5003;35423;37.320;-121.762;2022-09-03T09:18:37;15;15;
49528;PMS5003;35423;37.320;-121.762;2022-09-03T09:21:06;16;16;
49528;PMS5003;35423;37.320;-121.762;2022-09-03T09:23:29;16;16;
49528;PMS5003;35423;37.320;-121.762;2022-09-03T09:25:56;15;15;
49528;PMS5003;35423;37.320;-121.762;2022-09-03T09:28:23;31;19;
49528;PMS5003;35423;37.320;-121.762;2022-09-03T09:30:49;22;22;
49528;PMS5003;35423;37.320;-121.762;2022-09-03T09:33:15;20;20;
49528;PMS5003;35423;37.320;-121.762;2022-09-03T09:35:40;25;19;
49528;PMS5003;35423;37.320;-121.762;2022-09-03T09:38:08;16;16;
49528;PMS5003;35423;37.320;-121.762;2022-09-03T09:40:35;16;16;
49528;PMS5003;35423;37.320;-121.762;2022-09-03T09:43:04;21;21;
49528;PMS5003;35423;37.320;-121.762;2022-09-03T09:45:28;37;25;
49528;PMS5003;35423;37.320;-121.762;2022-09-03T09:47:53;12;12;
49528;PMS5003;35423;37.320;-121.762;2022-09-03T09:50:19;19;19;
49528;PMS5003;35423;37.320;-121.762;2022-09-03T09:52:45;21;13;
49528;PMS5003;35423;37.320;-121.762;2022-09-03T09:55:15;19;19;
49528;PMS5003;35423;37.320;-121.762;2022-09-03T09:57:40;27;27;
49528;PMS5003;35423;37.320;-121.762;2022-09-03T10:00:06;15;15;
49528;PMS5003;35423;37.320;-121.762;2022-09-03T10:02:38;16;16;
49528;PMS5003;35423;37.320;-121.762;2022-09-03T10:07:30;22;22;
49528;PMS5003;35423;37.320;-121.762;2022-09-03T10:09:58;17;17;
49528;PMS5003;35423;37.320;-121.762;2022-09-03T10:12:23;25;21;
49528;PMS5003;35423;37.320;-121.762;2022-09-03T10:14:50;18;18;
49528;PMS5003;35423;37.320;-121.762;2022-09-03T10:17:15;15;15;
49528;PMS5003;35423;37.320;-121.762;2022-09-03T10:19:42;18;18;
49528;PMS5003;35423;37.320;-121.762;2022-09-03T10:22:08;26;22;
49528;PMS5003;35423;37.320;-121.762;2022-09-03T10:24:39;15;15;
49528;PMS5003;35423;37.320;-121.762;2022-09-03T10:27:03;12;12;
49528;PMS5003;35423;37.320;-121.762;2022-09-03T10:29:28;24;21;
49528;PMS5003;35423;37.320;-121.762;2022-09-03T10:32:01;20;20;
49528;PMS5003;35423;37.320;-121.762;2022-09-03T10:34:21;19;19;
49528;PMS5003;35423;37.320;-121.762;2022-09-03T10:36:52;20;20;
49528;PMS5003;35423;37.320;-121.762;2022-09-03T10:39:18;22;21;
49528;PMS5003;35423;37.320;-121.762;2022-09-03T10:41:42;22;22;
49528;PMS5003;35423;37.320;-121.762;2022-09-03T10:44:13;20;20;
49528;PMS5003;35423;37.320;-121.762;2022-09-03T10:46:34;32;20;
49528;PMS5003;35423;37.320;-121.762;2022-09-03T10:49:09;23;23;
49528;PMS5003;35423;37.320;-121.762;2022-09-03T10:51:40;18;12;
49528;PMS5003;35423;37.320;-121.762;2022-09-03T10:54:10;16;16;
49528;PMS5003;35423;37.320;-121.762;2022-09-03T10:56:35;31;19;
49528;PMS5003;35423;37.320;-121.762;2022-09-03T10:59:05;22;22;
49528;PMS5003;35423;37.320;-121.762;2022-09-03T11:01:28;25;25;
49528;PMS5003;35423;37.320;-121.762;2022-09-03T11:03:56;32;21;
49528;PMS5003;35423;37.320;-121.762;2022-09-03T11:06:19;16;16;
49528;PMS5003;35423;37.320;-121.762;2022-09-03T11:08:46;20;20;
49528;PMS5003;35423;37.320;-121.762;2022-09-03T11:11:13;18;18;
49528;PMS5003;35423;37.320;-121.762;2022-09-03T11:13:37;25;22;
49528;PMS5003;35423;37.320;-121.762;2022-09-03T11:16:05;28;17;
49528;PMS5003;35423;37.320;-121.762;2022-09-03T11:18:29;20;20;
49528;PMS5003;35423;37.320;-121.762;2022-09-03T11:20:56;10;10;
49528;PMS5003;35423;37.320;-121.762;2022-09-03T11:23:20;22;22;
49528;PMS5003;35423;37.320;-121.762;2022-09-03T11:25:49;21;21;
49528;PMS5003;35423;37.320;-121.762;2022-09-03T11:28:19;12;12;
49528;PMS5003;35423;37.320;-121.762;2022-09-03T11:30:47;19;19;
49528;PMS5003;35423;37.320;-121.762;2022-09-03T11:33:08;18;18;
49528;PMS5003;35423;37.320;-121.762;2022-09-03T11:35:37;9;9;
49528;PMS5003;35423;37.320;-121.762;2022-09-03T11:38:00;14;14;
49528;PMS5003;35423;37.320;-121.762;2022-09-03T11:40:28;23;23;
49528;PMS5003;35423;37.320;-121.762;2022-09-03T11:42:51;21;21;
49528;PMS5003;35423;37.320;-121.762;2022-09-03T11:45:21;11;11;
49528;PMS5003;35423;37.320;-121.762;2022-09-03T11:47:42;9;9;
49528;PMS5003;35423;37.320;-121.762;2022-09-03T11:50:15;17;17;
49528;PMS5003;35423;37.320;-121.762;2022-09-03T11:52:34;14;14;
49528;PMS5003;35423;37.320;-121.762;2022-09-03T11:54:59;17;17;
49528;PMS5003;35423;37.320;-121.762;2022-09-03T11:57:26;23;23;
49528;PMS5003;35423;37.320;-121.762;2022-09-03T11:59:51;12;12;
49528;PMS5003;35423;37.320;-121.762;2022-09-03T12:02:22;17;17;
49528;PMS5003;35423;37.320;-121.762;2022-09-03T12:04:46;28;28;
49528;PMS5003;35423;37.320;-121.762;2022-09-03T12:12:10;26;15;
49528;PMS5003;35423;37.320;-121.762;2022-09-03T12:14:36;20;15;
49528;PMS5003;35423;37.320;-121.762;2022-09-03T12:17:07;15;15;
49528;PMS5003;35423;37.320;-121.762;2022-09-03T12:19:34;17;17;
49528;PMS5003;35423;37.320;-121.762;2022-09-03T12:21:57;10;10;
49528;PMS5003;35423;37.320;-121.762;2022-09-03T12:24:25;33;33;
49528;PMS5003;35423;37.320;-121.762;2022-09-03T12:26:52;12;12;
49528;PMS5003;35423;37.320;-121.762;2022-09-03T12:29:21;17;17;
49528;PMS5003;35423;37.320;-121.762;2022-09-03T12:31:44;22;22;
49528;PMS5003;35423;37.320;-121.762;2022-09-03T12:34:10;29;20;
49528;PMS5003;35423;37.320;-121.762;2022-09-03T12:36:36;23;20;
49528;PMS5003;35423;37.320;-121.762;2022-09-03T12:41:27;28;21;
49528;PMS5003;35423;37.320;-121.762;2022-09-03T12:43:53;21;21;
49528;PMS5003;35423;37.320;-121.762;2022-09-03T12:46:18;18;18;
49528;PMS5003;35423;37.320;-121.762;2022-09-03T12:51:11;28;20;
49528;PMS5003;35423;37.320;-121.762;2022-09-03T12:53:36;17;12;
49528;PMS5003;35423;37.320;-121.762;2022-09-03T12:56:07;11;11;
49528;PMS5003;35423;37.320;-121.762;2022-09-03T12:58:34;16;16;
49528;PMS5003;35423;37.320;-121.762;2022-09-03T13:01:02;24;22;
49528;PMS5003;35423;37.320;-121.762;2022-09-03T13:03:26;17;17;
49528;PMS5003;35423;37.320;-121.762;2022-09-03T13:05:50;23;23;
49528;PMS5003;35423;37.320;-121.762;2022-09-03T13:08:17;16;16;
49528;PMS5003;35423;37.320;-121.762;2022-09-03T13:10:42;25;14;
49528;PMS5003;35423;37.320;-121.762;2022-09-03T13:15:38;19;19;
49528;PMS5003;35423;37.320;-121.762;2022-09-03T13:18:09;15;15;
49528;PMS5003;35423;37.320;-121.762;2022-09-03T13:20:32;25;22;
49528;PMS5003;35423;37.320;-121.762;2022-09-03T13:22:58;20;14;
49528;PMS5003;35423;37.320;-121.762;2022-09-03T13:25:21;15;15;
49528;PMS5003;35423;37.320;-121.762;2022-09-03T13:27:51;13;13;
49528;PMS5003;35423;37.320;-121.762;2022-09-03T13:30:11;16;16;
49528;PMS5003;35423;37.320;-121.762;2022-09-03T13:32:40;17;15;
49528;PMS5003;35423;37.320;-121.762;2022-09-03T13:35:05;8;8;
49528;PMS5003;35423;37.320;-121.762;2022-09-03T13:37:37;18;18;
49528;PMS5003;35423;37.320;-121.762;2022-09-03T13:40:05;23;21;
49528;PMS5003;35423;37.320;-121.762;2022-09-03T13:42:31;14;14;
49528;PMS5003;35423;37.320;-121.762;2022-09-03T13:44:55;21;21;
49528;PMS5003;35423;37.320;-121.762;2022-09-03T13:47:24;8;8;
49528;PMS5003;35423;37.320;-121.762;2022-09-03T13:49:50;11;11;
49528;PMS5003;35423;37.320;-121.762;2022-09-03T13:52:17;18;14;
49528;PMS5003;35423;37.320;-121.762;2022-09-03T13:54:44;14;14;
49528;PMS5003;35423;37.320;-121.762;2022-09-03T13:57:09;11;11;
49528;PMS5003;35423;37.320;-121.762;2022-09-03T13:59:35;13;6;
49528;PMS5003;35423;37.320;-121.762;2022-09-03T14:02:05;17;17;
49528;PMS5003;35423;37.320;-121.762;2022-09-03T14:04:28;17;17;
49528;PMS5003;35423;37.320;-121.762;2022-09-03T14:06:53;16;16;
49528;PMS5003;35423;37.320;-121.762;2022-09-03T14:09:19;19;19;
49528;PMS5003;35423;37.320;-121.762;2022-09-03T14:11:48;13;13;
49528;PMS5003;35423;37.320;-121.762;2022-09-03T14:14:13;22;11;
49528;PMS5003;35423;37.320;-121.762;2022-09-03T14:16:41;26;13;
49528;PMS5003;35423;37.320;-121.762;2022-09-03T14:19:08;17;10;
49528;PMS5003;35423;37.320;-121.762;2022-09-03T14:21:41;13;13;
49528;PMS5003;35423;37.320;-121.762;2022-09-03T14:24:10;13;13;
49528;PMS5003;35423;37.320;-121.762;2022-09-03T14:26:37;17;17;
49528;PMS5003;35423;37.320;-121.762;2022-09-03T14:29:03;17;15;
49528;PMS5003;35423;37.320;-121.762;2022-09-03T14:31:40;11;11;
49528;PMS5003;35423;37.320;-121.762;2022-09-03T14:33:57;18;18;
49528;PMS5003;35423;37.320;-121.762;2022-09-03T14:36:22;18;18;
49528;PMS5003;35423;37.320;-121.762;2022-09-03T14:38:56;11;11;
49528;PMS5003;35423;37.320;-121.762;2022-09-03T14:41:21;22;10;
49528;PMS5003;35423;37.320;-121.762;2022-09-03T14:46:12;19;17;
49528;PMS5003;35423;37.320;-121.762;2022-09-03T14:48:39;13;13;
49528;PMS5003;35423;37.320;-121.762;2022-09-03T14:51:04;10;10;
49528;PMS5003;35423;37.320;-121.762;2022-09-03T14:55:59;18;18;
49528;PMS5003;35423;37.320;-121.762;2022-09-03T14:58:24;16;16;
49528;PMS5003;35423;37.320;-121.762;2022-09-03T15:00:51;19;19;
49528;PMS5003;35423;37.320;-121.762;2022-09-03T15:03:20;11;11;
49528;PMS5003;35423;37.320;-121.762;2022-09-03T15:05:46;17;16;
49528;PMS5003;35423;37.320;-121.762;2022-09-03T15:08:10;14;14;
49528;PMS5003;35423;37.320;-121.762;2022-09-03T15:10:37;13;13;
49528;PMS5003;35423;37.320;-121.762;2022-09-03T15:13:07;20;20;
49528;PMS5003;35423;37.320;-121.762;2022-09-03T15:15:29;15;15;
49528;PMS5003;35423;37.320;-121.762;2022-09-03T15:18:01;35;12;
49528;PMS5003;35423;37.320;-121.762;2022-09-03T15:20:25;21;21;
49528;PMS5003;35423;37.320;-121.762;2022-09-03T15:25:16;17;17;
49528;PMS5003;35423;37.320;-121.762;2022-09-03T15:27:45;8;8;
49528;PMS5003;35423;37.320;-121.762;2022-09-03T15:30:06;16;16;
49528;PMS5003;35423;37.320;-121.762;2022-09-03T15:32:40;20;20;
49528;PMS5003;35423;37.320;-121.762;2022-09-03T15:35:04;23;23;
49528;PMS5003;35423;37.320;-121.762;2022-09-03T15:37:29;14;14;
49528;PMS5003;35423;37.320;-121.762;2022-09-03T15:39:59;15;15;
49528;PMS5003;35423;37.320;-121.762;2022-09-03T15:42:25;14;14;
49528;PMS5003;35423;37.320;-121.762;2022-09-03T15:44:49;14;14;
49528;PMS5003;35423;37.320;-121.762;2022-09-03T15:47:27;14;14;
49528;PMS5003;35423;37.320;-121.762;2022-09-03T15:52:07;15;15;
49528;PMS5003;35423;37.320;-121.762;2022-09-03T15:54:36;13;13;
49528;PMS5003;35423;37.320;-121.762;2022-09-03T15:57:01;12;12;